createdAt,value
2022-10-18T00:00:46.751Z,1030.16
2022-10-18T00:16:02.703Z,1030.22
2022-10-18T00:31:18.685Z,1030.3
2022-10-18T00:46:35.676Z,1030.36
2022-10-18T01:01:51.655Z,1030.38
2022-10-18T01:17:08.595Z,1030.49
2022-10-18T01:32:25.567Z,1030.3
2022-10-18T01:47:42.550Z,1030.25
2022-10-18T02:02:58.508Z,1030.33
2022-10-18T02:18:14.482Z,1030.17
2022-10-18T02:33:46.859Z,1030.2
2022-10-18T02:48:47.453Z,1030.31
2022-10-18T03:04:04.411Z,1030.31
2022-10-18T03:19:21.414Z,1030.39
2022-10-18T03:34:38.371Z,1030.37
2022-10-18T03:49:57.021Z,1030.5
2022-10-18T04:05:10.283Z,1030.7
2022-10-18T04:20:26.290Z,1030.83
2022-10-18T04:35:43.279Z,1030.89
2022-10-18T04:51:00.236Z,1030.94
2022-10-18T05:06:17.213Z,1031.02
2022-10-18T05:21:33.203Z,1031.02
2022-10-18T05:36:50.179Z,1031.2
2022-10-18T05:52:06.145Z,1031.12
2022-10-18T06:07:22.116Z,1031.08
2022-10-18T06:22:38.105Z,1031.05
2022-10-18T06:37:55.060Z,1031.08
2022-10-18T06:53:12.035Z,1031.27
2022-10-18T07:08:29.004Z,1031.43
2022-10-18T07:23:44.952Z,1031.51
2022-10-18T07:39:01.948Z,1031.43
2022-10-18T07:54:17.895Z,1031.51
2022-10-18T08:09:33.883Z,1031.45
2022-10-18T08:24:49.822Z,1031.28
2022-10-18T08:40:07.839Z,1031.2
2022-10-18T08:55:24.767Z,1031.22
2022-10-18T09:10:41.770Z,1030.97
2022-10-18T09:25:57.705Z,1030.85
2022-10-18T09:41:14.721Z,1030.66
2022-10-18T09:56:30.666Z,1030.69
2022-10-18T10:11:46.635Z,1030.55
2022-10-18T10:27:03.574Z,1030.38
2022-10-18T10:42:21.572Z,1030.27
2022-10-18T10:57:38.524Z,1030.08
2022-10-18T11:12:54.517Z,1029.8
2022-10-18T11:28:10.437Z,1029.46
2022-10-18T11:43:30.512Z,1029.21
2022-10-18T11:58:43.411Z,1028.79
2022-10-18T12:13:59.352Z,1028.57
2022-10-18T12:29:16.349Z,1028.32
2022-10-18T12:44:34.281Z,1028.18
2022-10-18T12:59:51.273Z,1027.93
2022-10-18T13:15:24.919Z,1027.63
2022-10-18T13:30:23.215Z,1027.43
2022-10-18T13:45:40.160Z,1027.23
2022-10-18T14:00:56.124Z,1027.16
2022-10-18T14:01:39.057Z,1027.16
2022-10-18T14:16:13.090Z,1027.13
2022-10-18T14:31:29.058Z,1027.19
2022-10-18T14:46:46.008Z,1027.05
2022-10-18T15:02:03.000Z,1027
2022-10-18T15:17:19.966Z,1026.97
2022-10-18T15:32:35.972Z,1026.95
2022-10-18T15:47:52.905Z,1026.93
2022-10-18T16:03:08.873Z,1026.94
2022-10-18T16:18:24.863Z,1026.91
2022-10-18T16:33:40.815Z,1026.97
2022-10-18T16:48:57.805Z,1027.01
2022-10-18T17:04:14.746Z,1027.09
2022-10-18T17:04:55.623Z,1027.09
2022-10-18T17:19:32.756Z,1027.26
2022-10-18T17:34:49.687Z,1027.41
2022-10-18T17:50:06.686Z,1027.46
2022-10-18T18:05:22.618Z,1027.68
2022-10-18T18:20:38.619Z,1027.69
2022-10-18T18:35:54.588Z,1027.88
2022-10-18T18:51:11.557Z,1027.92
2022-10-18T19:06:28.518Z,1027.98
2022-10-18T19:21:45.494Z,1027.95
2022-10-18T19:37:01.470Z,1028.02
2022-10-18T19:52:18.453Z,1027.96
2022-10-18T20:07:34.416Z,1028.02
2022-10-18T20:22:50.427Z,1028.08
2022-10-18T20:38:06.319Z,1028.11
2022-10-18T20:53:23.298Z,1028.22
2022-10-18T21:08:40.301Z,1028.06
2022-10-18T21:23:57.242Z,1028.01
2022-10-18T21:39:09.257Z,1027.94
2022-10-18T21:54:25.191Z,1027.78
2022-10-18T22:09:42.194Z,1027.79
2022-10-18T22:24:59.134Z,1027.65
2022-10-18T22:40:17.111Z,1027.52
2022-10-18T22:55:33.061Z,1027.44
2022-10-18T23:10:49.073Z,1027.39
2022-10-18T23:26:05.011Z,1027.39
2022-10-18T23:41:21.986Z,1027.33
2022-10-18T23:56:37.955Z,1027.28
